Glendale, Arkansas
Current Conditions -  °F | °C
As of 1:53 PM on Friday 21 Nov 2014 (Local Time) from KPBF Reporting Station
Overcast Overcast  
Wind Chill: 54°   Ceiling: 700
Heat Index: 54°   Visibility: 8mi
Dew Point: 50°   Wind: 7mph
Humidity: 86%   Direction: 70°ENE
Pressure: 30.24"   Gusts: NA
Location:  33.924°N, 91.8685°W
Report Text: KPBF 211953Z AUTO 07006KT 8SM BKN007 BKN055 OVC075 12/10 A3024 RMK AO2 RAE13B24E34 SLP238 P0000 T01220100
Loading
Personal Weather Stations






























Interactive Weather Map New forecast layout! Learn more

10-Day Weather Forecast

Advertisements
Track Severe Weather on mobile